createdAt,value
2022-11-14T00:01:05.445Z,976.2
2022-11-14T00:16:07.364Z,976.48
2022-11-14T00:31:09.340Z,976.53
2022-11-14T00:46:11.296Z,976.57
2022-11-14T01:01:13.282Z,976.68
2022-11-14T01:16:15.273Z,976.76
2022-11-14T01:31:18.162Z,976.74
2022-11-14T01:46:20.070Z,976.7
2022-11-14T02:01:21.997Z,976.76
2022-11-14T02:16:24.007Z,976.76
2022-11-14T02:31:25.879Z,976.79
2022-11-14T02:46:27.721Z,976.84
2022-11-14T03:01:29.633Z,976.94
2022-11-14T03:16:31.584Z,977.13
2022-11-14T03:31:33.469Z,977.19
2022-11-14T03:46:35.344Z,977.14
2022-11-14T04:01:37.178Z,977.28
2022-11-14T04:16:39.030Z,977.41
2022-11-14T04:31:40.887Z,977.46
2022-11-14T04:46:42.750Z,977.56
2022-11-14T05:01:44.681Z,977.51
2022-11-14T05:16:46.618Z,977.71
2022-11-14T05:31:48.493Z,977.91
2022-11-14T05:46:50.338Z,978.04
2022-11-14T06:01:52.240Z,978.14
2022-11-14T06:16:54.138Z,978.3
2022-11-14T06:31:55.950Z,978.35
2022-11-14T06:46:57.790Z,978.51
2022-11-14T07:01:59.665Z,978.41
2022-11-14T07:17:01.511Z,978.55
2022-11-14T07:32:03.414Z,978.67
2022-11-14T07:47:05.503Z,978.7
2022-11-14T08:02:07.355Z,979.06
2022-11-14T08:17:09.206Z,979.18
2022-11-14T08:32:11.037Z,979.08
2022-11-14T08:47:12.929Z,978.87
2022-11-14T09:02:14.793Z,979.15
2022-11-14T09:17:16.623Z,979.42
2022-11-14T09:32:18.438Z,979.69
2022-11-14T09:47:20.973Z,979.87
2022-11-14T10:02:23.129Z,979.98
2022-11-14T10:17:25.028Z,979.98
2022-11-14T10:32:26.874Z,980.11
2022-11-14T10:47:28.917Z,980.16
2022-11-14T11:02:36.167Z,980.1
2022-11-14T11:17:42.987Z,980.15
2022-11-14T11:32:45.059Z,980.31
2022-11-14T11:47:46.914Z,980.57
2022-11-14T12:02:50.381Z,980.61
2022-11-14T12:17:52.477Z,980.64
2022-11-14T12:32:54.352Z,980.65
2022-11-14T12:47:56.214Z,980.74
2022-11-14T13:02:58.091Z,980.99
2022-11-14T13:18:00.016Z,981.14
2022-11-14T13:33:01.923Z,981.18
2022-11-14T13:48:03.758Z,981.2
2022-11-14T14:03:05.676Z,981.25
2022-11-14T14:18:07.480Z,981.35
2022-11-14T14:33:09.352Z,981.54
2022-11-14T14:48:11.174Z,981.75
2022-11-14T15:03:13.004Z,981.73
2022-11-14T15:18:14.865Z,981.96
2022-11-14T15:33:16.778Z,982.1
2022-11-14T15:48:18.613Z,981.93
2022-11-14T16:03:20.448Z,982.1
2022-11-14T16:18:22.286Z,982.26
2022-11-14T16:33:24.146Z,982.26
2022-11-14T16:48:25.982Z,982.3
2022-11-14T17:03:28.083Z,982.39
2022-11-14T17:18:34.126Z,982.25
2022-11-14T17:33:40.077Z,982.52
2022-11-14T17:48:41.928Z,982.49
2022-11-14T18:03:43.798Z,982.59
2022-11-14T18:18:45.648Z,982.58
2022-11-14T18:33:47.521Z,982.56
2022-11-14T18:48:49.374Z,982.64
2022-11-14T19:03:51.246Z,982.51
2022-11-14T19:18:53.231Z,982.41
2022-11-14T19:33:55.104Z,982.56
2022-11-14T19:48:56.972Z,982.53
2022-11-14T20:03:58.825Z,982.48
2022-11-14T20:19:00.692Z,982.42
2022-11-14T20:34:02.516Z,982.16
2022-11-14T20:49:04.429Z,981.9
2022-11-14T21:04:06.330Z,981.89
2022-11-14T21:19:08.216Z,981.73
2022-11-14T21:34:10.053Z,981.65
2022-11-14T21:49:11.936Z,981.62
2022-11-14T22:04:13.786Z,981.65
2022-11-14T22:19:15.826Z,981.59
2022-11-14T22:34:17.688Z,981.63
2022-11-14T22:49:21.232Z,981.7
2022-11-14T23:04:23.287Z,981.84
2022-11-14T23:19:25.088Z,981.88
2022-11-14T23:34:26.941Z,981.99
2022-11-14T23:49:28.803Z,982.03
